Taconic, Connecticut
Current Conditions -  °F | °C
As of 10:54 AM on Thursday 30 Oct 2014 (Local Time) from KPSF Reporting Station
Scattered Clouds Scattered Clouds  
Wind Chill: 40°   Ceiling: Unl
Heat Index: 46°   Visibility: 10mi
Dew Point: 38°   Wind: 13mph
Humidity: 73%   Direction: 290°WNW
Pressure: 29.96"   Gusts: 23mph
Location:  42.04°N, 73.41°W
Report Text: KPSF 301454Z AUTO 29011G20KT 10SM FEW021 SCT042 SCT050 08/03 A2996 RMK AO2 RAB24E47 SLP142 P0000 60000 T00780033 51007
Loading
Personal Weather Stations






























Interactive Weather Map
Tropical Storm Tracking
New forecast layout! Learn more

10-Day Weather Forecast

Advertisements
Track Severe Weather on mobile